Pagina principale
METAR-TAF:

METAR-TAF

Aeroporti :

Decimomannu, Italia

Aeroporto di Decimomannu

latitudine: 39-21N, longitudine: 008-58E, altezza: 29 m

Osservazione

Il bollettino è stato emesso 39 minuti fa, alle 08:55 UTC
Vento 12 kt da sud/sud-est
Temperature 28°C
Umidità 37%
Pressione 1017 hPa
Visibilità 10 km o più
nessuna nube inferiore a 1500 m e nessun cumulonembo

METAR: LIED 290855Z 16012KT CAVOK 28/12 Q1017 RMK FEW FEW200 VIS MIN 9999 WIND THR35 16012KT WIND THR17 /////KT BLU

Ora: 11:34 (09:34 UTC)

Previsione

Il bollettino è stato emesso 1 ora e 34 minuti fa, alle 08:00 UTC
Previsione valida dal 29 alle 09 UTC al 29 alle 18 UTC
Vento 15 kt da sud/sud-est
Visibilità 10 km o più
nessuna nube inferiore a 1500 m e nessun cumulonembo
Temporaneamente
dal 29 alle 12 UTC al 29 alle 16 UTC
Vento 15 kt da sud/sud-est con raffiche fino a 25 kt

TAF: LIED 290800Z 2909/2918 15015KT CAVOK TEMPO 2912/2916 15015G25KT

Osservazioni e previsioni meteorologiche di più di 4000 aeroporti (messaggi METAR e TAF).

Le stazioni disponibili sono rappresentate dai dischi gialli e rossi sulla carta.

Puntare il mouse per vedere il nome della stazione.

Clicca sopra per visualizzare le osservazioni e previsioni meteorologiche.

Per cambiare la mappa : fare clic sui pulsanti verdi con una croce nera per ingrandire, il pulsante verde con un trattino per diminuire, o sulla freccia verde per le mappe adiacenti.


METAR-TAF: